sensor_id;sensor_type;location;lat;lon;timestamp;noise_LAeq;noise_LA_min;noise_LA_max;noise_LA01;noise_LA95
77361;Laerm;66427;51.798;10.954;2023-12-22T00:00:07;52.45;43.25;65.48;;
77361;Laerm;66427;51.798;10.954;2023-12-22T00:02:33;51.23;40.86;61.06;;
77361;Laerm;66427;51.798;10.954;2023-12-22T00:04:58;53.36;42.02;66.52;;
77361;Laerm;66427;51.798;10.954;2023-12-22T00:07:23;49.71;39.03;71.48;;
77361;Laerm;66427;51.798;10.954;2023-12-22T00:09:49;53.37;44.70;62.14;;
77361;Laerm;66427;51.798;10.954;2023-12-22T00:12:14;54.88;45.23;73.15;;
77361;Laerm;66427;51.798;10.954;2023-12-22T00:14:40;58.20;49.16;70.20;;
77361;Laerm;66427;51.798;10.954;2023-12-22T00:17:06;47.97;42.67;57.24;;
77361;Laerm;66427;51.798;10.954;2023-12-22T00:19:31;49.35;42.36;56.58;;
77361;Laerm;66427;51.798;10.954;2023-12-22T00:21:56;51.91;42.37;64.09;;
77361;Laerm;66427;51.798;10.954;2023-12-22T00:24:23;55.41;44.70;70.56;;
77361;Laerm;66427;51.798;10.954;2023-12-22T00:26:48;52.05;43.47;61.31;;
77361;Laerm;66427;51.798;10.954;2023-12-22T00:29:14;53.60;42.32;69.21;;
77361;Laerm;66427;51.798;10.954;2023-12-22T00:31:39;48.99;40.94;63.18;;
77361;Laerm;66427;51.798;10.954;2023-12-22T00:34:05;48.36;41.84;55.80;;
77361;Laerm;66427;51.798;10.954;2023-12-22T00:36:30;52.86;43.20;63.88;;
77361;Laerm;66427;51.798;10.954;2023-12-22T00:38:55;44.98;39.87;63.57;;
77361;Laerm;66427;51.798;10.954;2023-12-22T00:41:21;49.68;39.24;59.36;;
77361;Laerm;66427;51.798;10.954;2023-12-22T00:43:46;48.17;39.47;56.84;;
77361;Laerm;66427;51.798;10.954;2023-12-22T00:46:12;45.78;38.14;56.72;;
77361;Laerm;66427;51.798;10.954;2023-12-22T00:48:38;47.55;39.75;59.36;;
77361;Laerm;66427;51.798;10.954;2023-12-22T00:51:03;48.90;38.74;58.38;;
77361;Laerm;66427;51.798;10.954;2023-12-22T00:53:30;52.78;43.52;63.51;;
77361;Laerm;66427;51.798;10.954;2023-12-22T00:55:55;56.25;45.95;69.18;;
77361;Laerm;66427;51.798;10.954;2023-12-22T00:58:21;49.34;40.62;62.16;;
77361;Laerm;66427;51.798;10.954;2023-12-22T01:00:46;51.35;39.27;60.15;;
77361;Laerm;66427;51.798;10.954;2023-12-22T01:03:12;44.81;38.66;57.91;;
77361;Laerm;66427;51.798;10.954;2023-12-22T01:05:38;52.95;39.79;61.69;;
77361;Laerm;66427;51.798;10.954;2023-12-22T01:08:03;47.13;41.26;65.09;;
77361;Laerm;66427;51.798;10.954;2023-12-22T01:10:29;52.04;42.66;61.60;;
77361;Laerm;66427;51.798;10.954;2023-12-22T01:12:54;50.45;42.91;61.51;;
77361;Laerm;66427;51.798;10.954;2023-12-22T01:15:20;46.86;39.92;52.23;;
77361;Laerm;66427;51.798;10.954;2023-12-22T01:17:45;47.33;40.28;60.16;;
77361;Laerm;66427;51.798;10.954;2023-12-22T01:20:10;48.56;42.17;62.50;;
77361;Laerm;66427;51.798;10.954;2023-12-22T01:22:36;44.94;37.23;51.40;;
77361;Laerm;66427;51.798;10.954;2023-12-22T01:25:04;50.06;41.94;62.78;;
77361;Laerm;66427;51.798;10.954;2023-12-22T01:27:30;45.97;40.01;53.96;;
77361;Laerm;66427;51.798;10.954;2023-12-22T01:29:56;50.01;40.95;66.62;;
77361;Laerm;66427;51.798;10.954;2023-12-22T01:32:21;45.23;39.34;57.56;;
77361;Laerm;66427;51.798;10.954;2023-12-22T01:34:46;44.22;38.66;55.22;;
77361;Laerm;66427;51.798;10.954;2023-12-22T01:37:12;50.61;41.47;64.07;;
77361;Laerm;66427;51.798;10.954;2023-12-22T01:39:37;48.43;39.53;58.59;;
77361;Laerm;66427;51.798;10.954;2023-12-22T01:42:03;46.70;40.33;54.81;;
77361;Laerm;66427;51.798;10.954;2023-12-22T01:44:28;49.97;41.61;62.65;;
77361;Laerm;66427;51.798;10.954;2023-12-22T01:46:54;49.40;42.04;61.78;;
77361;Laerm;66427;51.798;10.954;2023-12-22T01:49:20;47.60;39.49;56.54;;
77361;Laerm;66427;51.798;10.954;2023-12-22T01:51:45;47.93;42.44;62.52;;
77361;Laerm;66427;51.798;10.954;2023-12-22T01:54:10;46.40;40.65;63.55;;
77361;Laerm;66427;51.798;10.954;2023-12-22T01:56:38;46.57;38.43;55.01;;
77361;Laerm;66427;51.798;10.954;2023-12-22T01:59:04;47.40;40.20;54.25;;
77361;Laerm;66427;51.798;10.954;2023-12-22T02:01:29;47.41;41.44;57.61;;
77361;Laerm;66427;51.798;10.954;2023-12-22T02:03:56;52.05;43.57;61.19;;
77361;Laerm;66427;51.798;10.954;2023-12-22T02:06:22;53.88;43.72;65.51;;
77361;Laerm;66427;51.798;10.954;2023-12-22T02:08:48;44.46;39.96;53.59;;
77361;Laerm;66427;51.798;10.954;2023-12-22T02:11:14;49.92;40.68;62.26;;
77361;Laerm;66427;51.798;10.954;2023-12-22T02:13:40;51.17;44.61;58.36;;
77361;Laerm;66427;51.798;10.954;2023-12-22T02:16:13;51.63;43.91;65.84;;
77361;Laerm;66427;51.798;10.954;2023-12-22T02:18:42;53.48;44.84;68.43;;
77361;Laerm;66427;51.798;10.954;2023-12-22T02:21:08;51.07;42.97;65.51;;
77361;Laerm;66427;51.798;10.954;2023-12-22T02:23:34;47.82;40.28;63.28;;
77361;Laerm;66427;51.798;10.954;2023-12-22T02:26:03;48.66;39.62;60.54;;
77361;Laerm;66427;51.798;10.954;2023-12-22T02:28:31;53.70;43.09;69.45;;
77361;Laerm;66427;51.798;10.954;2023-12-22T02:31:02;49.51;43.32;65.71;;
77361;Laerm;66427;51.798;10.954;2023-12-22T02:33:29;51.85;43.19;62.49;;
77361;Laerm;66427;51.798;10.954;2023-12-22T02:36:01;53.80;43.92;64.94;;
77361;Laerm;66427;51.798;10.954;2023-12-22T02:38:28;48.07;40.76;59.75;;
77361;Laerm;66427;51.798;10.954;2023-12-22T02:40:53;48.08;40.13;56.29;;
77361;Laerm;66427;51.798;10.954;2023-12-22T02:43:20;49.32;39.09;60.82;;
77361;Laerm;66427;51.798;10.954;2023-12-22T02:45:49;45.69;39.32;59.77;;
77361;Laerm;66427;51.798;10.954;2023-12-22T02:48:14;42.49;35.67;50.96;;
77361;Laerm;66427;51.798;10.954;2023-12-22T02:50:40;57.13;35.39;76.93;;
77361;Laerm;66427;51.798;10.954;2023-12-22T02:53:05;52.55;43.08;65.13;;
77361;Laerm;66427;51.798;10.954;2023-12-22T02:55:30;52.14;41.53;62.86;;
77361;Laerm;66427;51.798;10.954;2023-12-22T02:57:56;46.79;40.61;57.48;;
77361;Laerm;66427;51.798;10.954;2023-12-22T03:00:21;50.96;43.18;62.30;;
77361;Laerm;66427;51.798;10.954;2023-12-22T03:02:47;46.22;39.76;58.92;;
77361;Laerm;66427;51.798;10.954;2023-12-22T03:05:12;52.80;39.08;69.52;;
77361;Laerm;66427;51.798;10.954;2023-12-22T03:07:38;43.34;37.26;52.09;;
77361;Laerm;66427;51.798;10.954;2023-12-22T03:10:03;53.11;38.28;67.92;;
77361;Laerm;66427;51.798;10.954;2023-12-22T03:12:28;49.40;40.78;65.68;;
77361;Laerm;66427;51.798;10.954;2023-12-22T03:14:54;46.71;41.13;59.60;;
77361;Laerm;66427;51.798;10.954;2023-12-22T03:17:19;48.59;40.47;60.05;;
77361;Laerm;66427;51.798;10.954;2023-12-22T03:19:45;50.54;40.47;61.13;;
77361;Laerm;66427;51.798;10.954;2023-12-22T03:22:10;45.14;39.74;60.06;;
77361;Laerm;66427;51.798;10.954;2023-12-22T03:24:35;47.16;39.00;58.21;;
77361;Laerm;66427;51.798;10.954;2023-12-22T03:27:02;49.06;41.66;62.41;;
77361;Laerm;66427;51.798;10.954;2023-12-22T03:29:27;49.95;42.24;62.21;;
77361;Laerm;66427;51.798;10.954;2023-12-22T03:31:53;45.42;39.19;53.75;;
77361;Laerm;66427;51.798;10.954;2023-12-22T03:34:18;52.49;42.07;62.23;;
77361;Laerm;66427;51.798;10.954;2023-12-22T03:36:44;48.90;41.80;63.09;;
77361;Laerm;66427;51.798;10.954;2023-12-22T03:39:13;47.82;40.60;59.41;;
77361;Laerm;66427;51.798;10.954;2023-12-22T03:41:38;51.94;41.19;76.25;;
77361;Laerm;66427;51.798;10.954;2023-12-22T03:44:04;51.41;43.89;61.57;;
77361;Laerm;66427;51.798;10.954;2023-12-22T03:46:29;52.92;43.41;66.54;;
77361;Laerm;66427;51.798;10.954;2023-12-22T03:48:55;56.37;45.91;64.45;;
77361;Laerm;66427;51.798;10.954;2023-12-22T03:51:20;52.06;42.19;61.34;;
77361;Laerm;66427;51.798;10.954;2023-12-22T03:53:45;51.71;41.93;67.47;;
77361;Laerm;66427;51.798;10.954;2023-12-22T03:56:11;47.39;40.39;59.79;;
77361;Laerm;66427;51.798;10.954;2023-12-22T03:58:36;53.93;45.53;68.03;;
77361;Laerm;66427;51.798;10.954;2023-12-22T04:01:02;52.61;43.03;76.26;;
77361;Laerm;66427;51.798;10.954;2023-12-22T04:03:27;51.68;43.11;62.30;;
77361;Laerm;66427;51.798;10.954;2023-12-22T04:05:53;52.72;44.89;60.84;;
77361;Laerm;66427;51.798;10.954;2023-12-22T04:08:18;53.39;43.59;74.15;;
77361;Laerm;66427;51.798;10.954;2023-12-22T04:10:46;52.48;43.85;66.49;;
77361;Laerm;66427;51.798;10.954;2023-12-22T04:13:11;55.22;45.61;68.51;;
77361;Laerm;66427;51.798;10.954;2023-12-22T04:15:36;51.14;43.93;62.55;;
77361;Laerm;66427;51.798;10.954;2023-12-22T04:18:02;54.59;45.15;68.48;;
77361;Laerm;66427;51.798;10.954;2023-12-22T04:20:27;56.37;44.92;68.19;;
77361;Laerm;66427;51.798;10.954;2023-12-22T04:22:53;57.19;45.69;74.69;;
77361;Laerm;66427;51.798;10.954;2023-12-22T04:25:18;55.09;43.96;68.42;;
77361;Laerm;66427;51.798;10.954;2023-12-22T04:27:44;45.65;41.26;53.77;;
77361;Laerm;66427;51.798;10.954;2023-12-22T04:30:10;51.20;43.37;61.00;;
77361;Laerm;66427;51.798;10.954;2023-12-22T04:32:35;52.85;43.24;62.13;;
77361;Laerm;66427;51.798;10.954;2023-12-22T04:35:01;53.18;42.45;67.37;;
77361;Laerm;66427;51.798;10.954;2023-12-22T04:37:26;52.19;42.56;66.62;;
77361;Laerm;66427;51.798;10.954;2023-12-22T04:39:51;52.30;41.35;63.74;;
77361;Laerm;66427;51.798;10.954;2023-12-22T04:42:17;56.61;46.04;69.28;;
77361;Laerm;66427;51.798;10.954;2023-12-22T04:44:43;53.74;44.85;63.39;;
77361;Laerm;66427;51.798;10.954;2023-12-22T04:47:09;49.34;42.95;57.33;;
77361;Laerm;66427;51.798;10.954;2023-12-22T04:49:34;48.47;41.59;55.85;;
77361;Laerm;66427;51.798;10.954;2023-12-22T04:51:59;53.92;42.95;66.76;;
77361;Laerm;66427;51.798;10.954;2023-12-22T04:54:25;57.12;47.62;70.35;;
77361;Laerm;66427;51.798;10.954;2023-12-22T04:56:50;52.81;43.25;67.49;;
77361;Laerm;66427;51.798;10.954;2023-12-22T04:59:16;51.81;45.57;62.18;;
77361;Laerm;66427;51.798;10.954;2023-12-22T05:01:41;52.25;43.57;64.57;;
77361;Laerm;66427;51.798;10.954;2023-12-22T05:04:08;57.75;41.67;72.81;;
77361;Laerm;66427;51.798;10.954;2023-12-22T05:06:34;48.31;39.67;61.54;;
77361;Laerm;66427;51.798;10.954;2023-12-22T05:09:00;49.08;41.38;57.41;;
77361;Laerm;66427;51.798;10.954;2023-12-22T05:11:25;49.23;42.38;59.13;;
77361;Laerm;66427;51.798;10.954;2023-12-22T05:13:50;53.37;42.56;66.70;;
77361;Laerm;66427;51.798;10.954;2023-12-22T05:16:16;50.71;42.22;59.34;;
77361;Laerm;66427;51.798;10.954;2023-12-22T05:18:41;52.81;43.09;68.71;;
77361;Laerm;66427;51.798;10.954;2023-12-22T05:21:07;54.80;44.89;68.17;;
77361;Laerm;66427;51.798;10.954;2023-12-22T05:23:32;55.40;43.60;71.04;;
77361;Laerm;66427;51.798;10.954;2023-12-22T05:25:58;52.19;42.34;62.59;;
77361;Laerm;66427;51.798;10.954;2023-12-22T05:28:23;58.51;46.15;71.37;;
77361;Laerm;66427;51.798;10.954;2023-12-22T05:30:48;51.76;43.35;60.70;;
77361;Laerm;66427;51.798;10.954;2023-12-22T05:33:14;59.96;44.63;75.85;;
77361;Laerm;66427;51.798;10.954;2023-12-22T05:35:39;53.36;44.58;64.40;;
77361;Laerm;66427;51.798;10.954;2023-12-22T05:38:05;54.32;44.87;65.10;;
77361;Laerm;66427;51.798;10.954;2023-12-22T05:40:31;52.88;45.19;62.05;;
77361;Laerm;66427;51.798;10.954;2023-12-22T05:42:56;54.06;42.51;66.67;;
77361;Laerm;66427;51.798;10.954;2023-12-22T05:45:22;58.92;46.20;68.59;;
77361;Laerm;66427;51.798;10.954;2023-12-22T05:47:47;53.71;44.83;67.39;;
77361;Laerm;66427;51.798;10.954;2023-12-22T05:50:13;54.33;44.86;66.02;;
77361;Laerm;66427;51.798;10.954;2023-12-22T05:52:38;60.13;47.67;73.43;;
77361;Laerm;66427;51.798;10.954;2023-12-22T05:55:04;59.80;48.74;72.49;;
77361;Laerm;66427;51.798;10.954;2023-12-22T05:57:29;58.48;44.38;69.16;;
77361;Laerm;66427;51.798;10.954;2023-12-22T05:59:55;56.63;46.65;68.85;;
77361;Laerm;66427;51.798;10.954;2023-12-22T06:02:20;54.41;44.79;66.98;;
77361;Laerm;66427;51.798;10.954;2023-12-22T06:04:46;53.09;48.16;64.76;;
77361;Laerm;66427;51.798;10.954;2023-12-22T06:07:11;58.13;47.93;72.97;;
77361;Laerm;66427;51.798;10.954;2023-12-22T06:09:37;59.81;49.11;73.83;;
77361;Laerm;66427;51.798;10.954;2023-12-22T06:12:02;59.05;45.29;74.26;;
77361;Laerm;66427;51.798;10.954;2023-12-22T06:14:28;57.54;49.53;69.42;;
77361;Laerm;66427;51.798;10.954;2023-12-22T06:16:53;57.49;45.33;70.36;;
77361;Laerm;66427;51.798;10.954;2023-12-22T06:19:21;54.15;46.51;61.51;;
77361;Laerm;66427;51.798;10.954;2023-12-22T06:21:49;57.42;48.06;69.06;;
77361;Laerm;66427;51.798;10.954;2023-12-22T06:24:14;56.25;43.66;65.86;;
77361;Laerm;66427;51.798;10.954;2023-12-22T06:26:41;56.14;43.86;68.16;;
77361;Laerm;66427;51.798;10.954;2023-12-22T06:29:07;57.05;43.55;68.91;;
77361;Laerm;66427;51.798;10.954;2023-12-22T06:31:32;54.30;45.50;66.73;;
77361;Laerm;66427;51.798;10.954;2023-12-22T06:33:57;60.11;49.49;75.94;;
77361;Laerm;66427;51.798;10.954;2023-12-22T06:36:27;56.36;42.97;67.98;;
77361;Laerm;66427;51.798;10.954;2023-12-22T06:38:53;60.02;49.24;74.30;;
77361;Laerm;66427;51.798;10.954;2023-12-22T06:43:45;58.47;47.68;69.41;;
77361;Laerm;66427;51.798;10.954;2023-12-22T06:46:17;61.04;49.12;73.22;;
77361;Laerm;66427;51.798;10.954;2023-12-22T06:48:42;54.89;46.37;65.14;;
77361;Laerm;66427;51.798;10.954;2023-12-22T06:51:16;55.68;47.09;68.10;;
77361;Laerm;66427;51.798;10.954;2023-12-22T06:53:41;56.12;47.41;66.88;;
77361;Laerm;66427;51.798;10.954;2023-12-22T06:56:14;54.76;45.38;69.72;;
77361;Laerm;66427;51.798;10.954;2023-12-22T06:58:39;60.12;47.91;76.05;;
77361;Laerm;66427;51.798;10.954;2023-12-22T07:01:05;59.18;47.31;68.21;;
77361;Laerm;66427;51.798;10.954;2023-12-22T07:03:30;52.68;46.71;61.87;;
77361;Laerm;66427;51.798;10.954;2023-12-22T07:05:55;55.57;46.69;67.09;;
77361;Laerm;66427;51.798;10.954;2023-12-22T07:08:21;55.67;45.01;75.51;;
77361;Laerm;66427;51.798;10.954;2023-12-22T07:10:46;61.16;49.11;78.86;;
77361;Laerm;66427;51.798;10.954;2023-12-22T07:13:12;57.95;46.61;69.46;;
77361;Laerm;66427;51.798;10.954;2023-12-22T07:15:37;54.76;45.55;73.13;;
77361;Laerm;66427;51.798;10.954;2023-12-22T07:18:03;56.26;47.05;64.82;;
77361;Laerm;66427;51.798;10.954;2023-12-22T07:20:29;56.24;48.10;69.10;;
77361;Laerm;66427;51.798;10.954;2023-12-22T07:22:55;60.06;48.57;69.06;;
77361;Laerm;66427;51.798;10.954;2023-12-22T07:25:21;62.92;46.21;80.01;;
77361;Laerm;66427;51.798;10.954;2023-12-22T07:27:47;60.80;45.73;77.22;;
77361;Laerm;66427;51.798;10.954;2023-12-22T07:30:12;58.27;46.49;71.26;;
77361;Laerm;66427;51.798;10.954;2023-12-22T07:32:42;68.09;52.72;80.80;;
77361;Laerm;66427;51.798;10.954;2023-12-22T07:35:07;66.68;54.86;76.92;;
77361;Laerm;66427;51.798;10.954;2023-12-22T07:37:34;60.36;51.47;71.04;;
77361;Laerm;66427;51.798;10.954;2023-12-22T07:40:00;60.42;48.92;72.55;;
77361;Laerm;66427;51.798;10.954;2023-12-22T07:42:25;54.91;47.02;69.77;;
77361;Laerm;66427;51.798;10.954;2023-12-22T07:44:51;56.66;47.45;69.32;;
77361;Laerm;66427;51.798;10.954;2023-12-22T07:47:16;58.72;47.37;73.22;;
77361;Laerm;66427;51.798;10.954;2023-12-22T07:49:42;57.46;44.63;71.89;;
77361;Laerm;66427;51.798;10.954;2023-12-22T07:52:07;58.30;46.17;71.71;;
77361;Laerm;66427;51.798;10.954;2023-12-22T07:54:33;57.34;43.39;68.26;;
77361;Laerm;66427;51.798;10.954;2023-12-22T07:56:58;59.31;45.72;74.33;;
77361;Laerm;66427;51.798;10.954;2023-12-22T07:59:23;55.23;44.42;70.24;;
77361;Laerm;66427;51.798;10.954;2023-12-22T08:01:49;56.30;43.03;69.90;;
77361;Laerm;66427;51.798;10.954;2023-12-22T08:04:15;57.81;46.02;69.50;;
77361;Laerm;66427;51.798;10.954;2023-12-22T08:06:40;61.04;45.68;76.35;;
77361;Laerm;66427;51.798;10.954;2023-12-22T08:09:06;60.69;43.99;74.11;;
77361;Laerm;66427;51.798;10.954;2023-12-22T08:11:31;59.29;43.83;73.80;;
77361;Laerm;66427;51.798;10.954;2023-12-22T08:13:57;58.56;41.79;73.92;;
77361;Laerm;66427;51.798;10.954;2023-12-22T08:16:23;59.13;40.05;73.98;;
77361;Laerm;66427;51.798;10.954;2023-12-22T08:18:48;53.04;41.33;68.42;;
77361;Laerm;66427;51.798;10.954;2023-12-22T08:21:14;54.57;39.96;71.65;;
77361;Laerm;66427;51.798;10.954;2023-12-22T08:23:40;52.23;41.10;69.62;;
77361;Laerm;66427;51.798;10.954;2023-12-22T08:26:06;62.97;42.20;78.02;;
77361;Laerm;66427;51.798;10.954;2023-12-22T08:28:31;53.20;42.62;69.13;;
77361;Laerm;66427;51.798;10.954;2023-12-22T08:30:57;54.77;43.26;72.94;;
77361;Laerm;66427;51.798;10.954;2023-12-22T08:33:22;65.92;45.94;79.18;;
77361;Laerm;66427;51.798;10.954;2023-12-22T08:35:48;54.77;41.58;68.15;;
77361;Laerm;66427;51.798;10.954;2023-12-22T08:38:13;66.27;42.01;82.29;;
77361;Laerm;66427;51.798;10.954;2023-12-22T08:40:40;57.58;39.46;69.06;;
77361;Laerm;66427;51.798;10.954;2023-12-22T08:43:05;53.59;39.52;70.55;;
77361;Laerm;66427;51.798;10.954;2023-12-22T08:45:31;61.46;39.18;72.33;;
77361;Laerm;66427;51.798;10.954;2023-12-22T08:47:57;56.19;38.13;72.58;;
77361;Laerm;66427;51.798;10.954;2023-12-22T08:50:22;66.89;38.79;78.55;;
77361;Laerm;66427;51.798;10.954;2023-12-22T08:52:47;66.92;44.81;76.70;;
77361;Laerm;66427;51.798;10.954;2023-12-22T08:55:13;65.44;42.24;75.34;;
77361;Laerm;66427;51.798;10.954;2023-12-22T08:57:41;64.50;40.50;79.16;;
77361;Laerm;66427;51.798;10.954;2023-12-22T09:00:07;65.94;41.63;78.33;;
77361;Laerm;66427;51.798;10.954;2023-12-22T09:02:33;64.93;44.49;76.92;;
77361;Laerm;66427;51.798;10.954;2023-12-22T09:04:58;65.78;42.06;76.68;;
77361;Laerm;66427;51.798;10.954;2023-12-22T09:07:24;66.12;43.45;78.95;;
77361;Laerm;66427;51.798;10.954;2023-12-22T09:09:49;67.73;50.53;81.12;;
77361;Laerm;66427;51.798;10.954;2023-12-22T09:12:15;68.32;49.11;80.31;;
77361;Laerm;66427;51.798;10.954;2023-12-22T09:14:41;61.63;46.32;76.47;;
77361;Laerm;66427;51.798;10.954;2023-12-22T09:17:06;63.69;46.73;75.79;;
77361;Laerm;66427;51.798;10.954;2023-12-22T09:19:32;62.64;45.79;75.49;;
77361;Laerm;66427;51.798;10.954;2023-12-22T09:21:58;63.15;46.74;75.74;;
77361;Laerm;66427;51.798;10.954;2023-12-22T09:24:24;66.39;50.63;75.01;;
77361;Laerm;66427;51.798;10.954;2023-12-22T09:26:49;62.27;45.66;76.15;;
77361;Laerm;66427;51.798;10.954;2023-12-22T09:29:16;58.86;45.42;73.82;;
77361;Laerm;66427;51.798;10.954;2023-12-22T09:31:42;61.60;46.50;71.49;;
77361;Laerm;66427;51.798;10.954;2023-12-22T09:34:07;62.80;47.28;75.48;;
77361;Laerm;66427;51.798;10.954;2023-12-22T09:36:33;61.40;48.45;74.15;;
77361;Laerm;66427;51.798;10.954;2023-12-22T09:38:58;58.62;46.45;70.26;;
77361;Laerm;66427;51.798;10.954;2023-12-22T09:41:24;61.36;47.84;74.53;;
77361;Laerm;66427;51.798;10.954;2023-12-22T09:43:49;62.54;49.74;75.05;;
77361;Laerm;66427;51.798;10.954;2023-12-22T09:46:16;58.88;47.45;71.67;;
77361;Laerm;66427;51.798;10.954;2023-12-22T09:48:42;62.06;48.04;74.15;;
77361;Laerm;66427;51.798;10.954;2023-12-22T09:51:09;60.66;47.06;71.97;;
77361;Laerm;66427;51.798;10.954;2023-12-22T09:53:36;57.33;46.50;68.22;;
77361;Laerm;66427;51.798;10.954;2023-12-22T09:56:03;57.60;44.45;73.06;;
77361;Laerm;66427;51.798;10.954;2023-12-22T09:58:29;59.69;45.68;72.66;;
77361;Laerm;66427;51.798;10.954;2023-12-22T10:00:54;60.17;44.48;74.13;;
77361;Laerm;66427;51.798;10.954;2023-12-22T10:03:20;59.20;45.73;73.74;;
77361;Laerm;66427;51.798;10.954;2023-12-22T10:05:46;59.48;44.58;72.59;;
77361;Laerm;66427;51.798;10.954;2023-12-22T10:08:11;65.05;47.14;82.34;;
77361;Laerm;66427;51.798;10.954;2023-12-22T10:10:38;56.38;44.28;71.58;;
77361;Laerm;66427;51.798;10.954;2023-12-22T10:13:05;60.91;48.76;70.83;;
77361;Laerm;66427;51.798;10.954;2023-12-22T10:15:34;58.21;46.61;71.51;;
77361;Laerm;66427;51.798;10.954;2023-12-22T10:18:00;58.14;47.27;68.84;;
77361;Laerm;66427;51.798;10.954;2023-12-22T10:20:26;56.28;45.51;73.88;;
77361;Laerm;66427;51.798;10.954;2023-12-22T10:22:51;63.08;48.49;76.25;;
77361;Laerm;66427;51.798;10.954;2023-12-22T10:25:19;60.16;47.72;69.23;;
77361;Laerm;66427;51.798;10.954;2023-12-22T10:27:45;60.06;45.11;74.12;;
77361;Laerm;66427;51.798;10.954;2023-12-22T10:30:10;58.12;45.70;70.28;;
77361;Laerm;66427;51.798;10.954;2023-12-22T10:32:40;59.64;47.58;75.19;;
77361;Laerm;66427;51.798;10.954;2023-12-22T10:35:07;63.30;47.67;77.35;;
77361;Laerm;66427;51.798;10.954;2023-12-22T10:37:32;57.90;46.53;70.30;;
77361;Laerm;66427;51.798;10.954;2023-12-22T10:39:57;60.21;46.12;76.63;;
77361;Laerm;66427;51.798;10.954;2023-12-22T10:42:23;59.29;45.01;73.09;;
77361;Laerm;66427;51.798;10.954;2023-12-22T10:44:49;58.37;46.84;69.53;;
77361;Laerm;66427;51.798;10.954;2023-12-22T10:47:15;58.27;47.37;71.53;;
77361;Laerm;66427;51.798;10.954;2023-12-22T10:49:42;57.94;45.05;68.69;;
77361;Laerm;66427;51.798;10.954;2023-12-22T10:52:10;57.60;44.34;67.97;;
77361;Laerm;66427;51.798;10.954;2023-12-22T10:54:40;55.21;44.26;69.20;;
77361;Laerm;66427;51.798;10.954;2023-12-22T10:57:05;59.22;44.16;70.66;;
77361;Laerm;66427;51.798;10.954;2023-12-22T10:59:31;56.67;44.64;71.99;;
77361;Laerm;66427;51.798;10.954;2023-12-22T11:01:58;55.39;43.43;70.65;;
77361;Laerm;66427;51.798;10.954;2023-12-22T11:04:34;55.56;42.17;68.28;;
77361;Laerm;66427;51.798;10.954;2023-12-22T11:07:00;57.03;42.27;70.66;;
77361;Laerm;66427;51.798;10.954;2023-12-22T11:09:28;62.94;42.30;80.08;;
77361;Laerm;66427;51.798;10.954;2023-12-22T11:11:56;56.77;44.59;67.75;;
77361;Laerm;66427;51.798;10.954;2023-12-22T11:14:22;56.22;42.00;67.55;;
77361;Laerm;66427;51.798;10.954;2023-12-22T11:16:48;54.59;41.61;68.46;;
77361;Laerm;66427;51.798;10.954;2023-12-22T11:19:14;44.24;40.79;54.79;;
77361;Laerm;66427;51.798;10.954;2023-12-22T11:21:40;58.00;43.45;68.89;;
77361;Laerm;66427;51.798;10.954;2023-12-22T11:24:06;56.40;42.47;70.35;;
77361;Laerm;66427;51.798;10.954;2023-12-22T11:26:32;56.05;41.24;68.66;;
77361;Laerm;66427;51.798;10.954;2023-12-22T11:28:58;55.72;42.64;67.72;;
77361;Laerm;66427;51.798;10.954;2023-12-22T11:31:24;46.49;41.67;61.23;;
77361;Laerm;66427;51.798;10.954;2023-12-22T11:33:51;57.67;43.59;69.60;;
77361;Laerm;66427;51.798;10.954;2023-12-22T11:36:17;53.33;41.81;66.69;;
77361;Laerm;66427;51.798;10.954;2023-12-22T11:38:45;51.14;40.31;68.52;;
77361;Laerm;66427;51.798;10.954;2023-12-22T11:41:12;54.99;40.83;74.88;;
77361;Laerm;66427;51.798;10.954;2023-12-22T11:43:41;59.08;43.92;72.67;;
77361;Laerm;66427;51.798;10.954;2023-12-22T11:46:07;54.06;43.27;67.59;;
77361;Laerm;66427;51.798;10.954;2023-12-22T11:48:33;56.75;42.88;69.56;;
77361;Laerm;66427;51.798;10.954;2023-12-22T11:50:59;55.58;43.01;71.55;;
77361;Laerm;66427;51.798;10.954;2023-12-22T11:53:25;57.53;44.72;67.59;;
77361;Laerm;66427;51.798;10.954;2023-12-22T11:55:57;56.88;43.56;72.06;;
77361;Laerm;66427;51.798;10.954;2023-12-22T11:58:32;56.84;45.67;70.71;;
77361;Laerm;66427;51.798;10.954;2023-12-22T12:00:59;56.82;47.30;77.13;;
77361;Laerm;66427;51.798;10.954;2023-12-22T12:03:26;52.84;45.07;62.24;;
77361;Laerm;66427;51.798;10.954;2023-12-22T12:06:09;58.04;46.24;70.89;;
77361;Laerm;66427;51.798;10.954;2023-12-22T12:08:35;58.32;47.94;71.29;;
77361;Laerm;66427;51.798;10.954;2023-12-22T12:11:00;56.40;46.97;68.40;;
77361;Laerm;66427;51.798;10.954;2023-12-22T12:13:28;58.62;45.41;75.51;;
77361;Laerm;66427;51.798;10.954;2023-12-22T12:15:56;58.94;45.45;75.01;;
77361;Laerm;66427;51.798;10.954;2023-12-22T12:18:24;58.26;46.37;73.36;;
77361;Laerm;66427;51.798;10.954;2023-12-22T12:20:52;54.28;44.83;70.09;;
77361;Laerm;66427;51.798;10.954;2023-12-22T12:23:17;49.37;44.58;60.36;;
77361;Laerm;66427;51.798;10.954;2023-12-22T12:25:43;55.04;45.44;66.10;;
77361;Laerm;66427;51.798;10.954;2023-12-22T12:28:08;57.83;47.89;68.33;;
77361;Laerm;66427;51.798;10.954;2023-12-22T12:30:34;56.08;47.54;69.97;;
77361;Laerm;66427;51.798;10.954;2023-12-22T12:33:07;59.32;45.28;74.84;;
77361;Laerm;66427;51.798;10.954;2023-12-22T12:35:33;57.12;44.19;69.23;;
77361;Laerm;66427;51.798;10.954;2023-12-22T12:38:02;57.86;45.85;70.09;;
77361;Laerm;66427;51.798;10.954;2023-12-22T12:40:28;58.71;45.56;72.17;;
77361;Laerm;66427;51.798;10.954;2023-12-22T12:42:55;55.23;44.02;67.77;;
77361;Laerm;66427;51.798;10.954;2023-12-22T12:45:24;54.90;45.08;65.19;;
77361;Laerm;66427;51.798;10.954;2023-12-22T12:47:56;54.36;44.32;67.38;;
77361;Laerm;66427;51.798;10.954;2023-12-22T12:50:22;54.40;45.08;65.51;;
77361;Laerm;66427;51.798;10.954;2023-12-22T12:52:48;55.94;47.04;65.42;;
77361;Laerm;66427;51.798;10.954;2023-12-22T12:55:17;57.84;50.65;66.96;;
77361;Laerm;66427;51.798;10.954;2023-12-22T12:57:43;56.95;45.62;70.98;;
77361;Laerm;66427;51.798;10.954;2023-12-22T13:00:09;57.37;47.92;69.90;;
77361;Laerm;66427;51.798;10.954;2023-12-22T13:02:35;54.50;45.79;65.99;;
77361;Laerm;66427;51.798;10.954;2023-12-22T13:05:00;56.40;41.92;68.85;;
77361;Laerm;66427;51.798;10.954;2023-12-22T13:07:29;54.89;41.07;65.62;;
77361;Laerm;66427;51.798;10.954;2023-12-22T13:09:55;54.72;43.36;67.01;;
77361;Laerm;66427;51.798;10.954;2023-12-22T13:12:22;57.91;42.39;70.54;;
77361;Laerm;66427;51.798;10.954;2023-12-22T13:14:48;54.33;41.24;64.12;;
77361;Laerm;66427;51.798;10.954;2023-12-22T13:17:13;54.75;43.73;68.68;;
77361;Laerm;66427;51.798;10.954;2023-12-22T13:19:39;50.99;42.42;67.81;;
77361;Laerm;66427;51.798;10.954;2023-12-22T13:22:04;47.77;41.74;58.01;;
77361;Laerm;66427;51.798;10.954;2023-12-22T13:24:30;57.08;40.89;68.83;;
77361;Laerm;66427;51.798;10.954;2023-12-22T13:26:59;56.18;41.40;70.36;;